This is the latest recevied weather packets stored in our database for station/object W5DRO-13. If no packets are shown the sender has not sent any weather packets the latest 10 day(s).
| Time | Temp. | Humidity | Pressure | Rain* | Wind** | Luminosity | Snow |
|---|---|---|---|---|---|---|---|
| 1777774536 | 14.44° C | 63% | 1020.2 hPa | 0 mm | - | - | - |
| 1777774233 | 14.44° C | 62% | 1020 hPa | 0 mm | - | - | - |
| 1777773930 | 14.44° C | 60% | 1019.9 hPa | 0 mm | - | - | - |
| 1777773626 | 15° C | 59% | 1019.8 hPa | 0 mm | - | - | - |
| 1777773021 | 15.56° C | 58% | 1019.8 hPa | 0 mm | - | - | - |
| 1777772415 | 16.11° C | 54% | 1019.7 hPa | 0 mm | - | - | - |
| 1777772112 | 16.67° C | 53% | 1019.5 hPa | 0 mm | - | - | - |
| 1777768173 | 21.11° C | 42% | 1019.4 hPa | 0 mm | - | - | - |
| 1777767566 | 21.67° C | 41% | 1019.4 hPa | 0 mm | - | - | - |
| 1777767262 | 22.22° C | 41% | 1019.5 hPa | 0 mm | - | - | - |
| 1777765445 | 23.33° C | 35% | 1019.5 hPa | 0 mm | - | - | - |
| 1777764535 | 23.89° C | 37% | 1019.3 hPa | 0 mm | - | - | - |
| 1777763324 | 24.44° C | 34% | 1019.7 hPa | 0 mm | - | - | - |
| 1777763022 | 24.44° C | 34% | 1019.6 hPa | 0 mm | - | - | - |
| 1777761808 | 25° C | 37% | 1019.6 hPa | 0 mm | - | - | - |
| 1777760598 | 22.78° C | 39% | 1019.9 hPa | 0 mm | - | - | - |
| 1777760294 | 22.78° C | 38% | 1020 hPa | 0 mm | - | - | - |
| 1777759383 | 22.78° C | 40% | 1019.8 hPa | 0 mm | - | - | - |
| 1777759080 | 22.78° C | 38% | 1019.9 hPa | 0 mm | - | - | - |
| 1777758171 | 23.89° C | 35% | 1020.1 hPa | 0 mm | - | - | - |
| 1777757868 | 25° C | 36% | 1020.1 hPa | 0 mm | - | - | - |
| 1777757264 | 26.67° C | 32% | 1020.3 hPa | 0 mm | - | - | - |
| 1777756962 | 26.11° C | 32% | 1020.1 hPa | 0 mm | - | - | - |
| 1777753022 | 24.44° C | 34% | 1020.9 hPa | 0 mm | - | - | - |
| 1777752718 | 24.44° C | 38% | 1021.3 hPa | 0 mm | - | - | - |
* Rain latest hour (hover to see other rain measurements)
** Current wind speed in m/s (hover to see current wind gust speed)